createdAt,value
2019-01-11T00:00:54.562Z,9.60
2019-01-11T00:03:36.005Z,11.33
2019-01-11T00:06:17.334Z,10.43
2019-01-11T00:08:58.625Z,7.40
2019-01-11T00:11:39.966Z,9.50
2019-01-11T00:14:21.352Z,6.80
2019-01-11T00:17:01.845Z,8.83
2019-01-11T00:19:43.158Z,8.83
2019-01-11T00:25:07.493Z,8.47
2019-01-11T00:27:48.772Z,10.47
2019-01-11T00:33:24.281Z,9.37
2019-01-11T00:36:04.798Z,13.40
2019-01-11T00:38:46.182Z,8.30
2019-01-11T00:41:27.408Z,7.33
2019-01-11T00:47:02.803Z,10.27
2019-01-11T00:49:43.347Z,9.87
2019-01-11T00:52:23.853Z,8.93
2019-01-11T00:55:06.007Z,9.90
2019-01-11T00:57:47.470Z,8.07
2019-01-11T01:00:28.520Z,10.27
2019-01-11T01:03:09.874Z,7.10
2019-01-11T01:05:50.390Z,11.73
2019-01-11T01:08:31.474Z,6.67
2019-01-11T01:11:12.338Z,12.40
2019-01-11T01:13:52.836Z,9.80
2019-01-11T01:16:34.140Z,15.10
2019-01-11T01:19:19.969Z,8.77
2019-01-11T01:21:57.482Z,10.53
2019-01-11T01:24:38.854Z,8.87
2019-01-11T01:27:19.890Z,11.33
2019-01-11T01:30:01.164Z,10.50
2019-01-11T01:32:40.305Z,10.53
2019-01-11T01:35:21.121Z,12.03
2019-01-11T01:38:02.247Z,10.43
2019-01-11T01:40:42.818Z,13.67
2019-01-11T01:43:24.113Z,11.93
2019-01-11T01:46:05.515Z,17.20
2019-01-11T01:48:46.823Z,13.77
2019-01-11T01:51:28.132Z,18.80
2019-01-11T01:54:09.505Z,14.77
2019-01-11T01:56:50.018Z,20.43
2019-01-11T01:59:31.347Z,15.83
2019-01-11T02:02:00.131Z,18.37
2019-01-11T02:04:48.157Z,21.63
2019-01-11T02:07:36.213Z,29.10
2019-01-11T02:10:24.265Z,23.87
2019-01-11T02:13:12.397Z,23.60
2019-01-11T02:16:00.440Z,23.37
2019-01-11T02:18:48.501Z,24.63
2019-01-11T02:24:26.332Z,21.77
2019-01-11T02:33:08.346Z,23.27
2019-01-11T02:35:49.286Z,25.37
2019-01-11T02:38:32.335Z,27.03
2019-01-11T02:44:03.817Z,24.60
2019-01-11T02:46:45.116Z,24.70
2019-01-11T02:49:26.314Z,26.90
2019-01-11T02:52:07.722Z,26.90
2019-01-11T02:54:48.553Z,29.43
2019-01-11T02:57:29.652Z,28.10
2019-01-11T03:00:10.940Z,27.53
2019-01-11T03:02:52.086Z,31.67
2019-01-11T03:05:31.147Z,31.57
2019-01-11T03:08:19.191Z,29.63
2019-01-11T03:11:07.322Z,28.00
2019-01-11T03:13:55.374Z,30.80
2019-01-11T03:16:43.404Z,30.87
2019-01-11T03:19:31.525Z,27.90
2019-01-11T03:22:19.639Z,30.90
2019-01-11T03:25:08.866Z,30.00
2019-01-11T03:27:56.897Z,31.17
2019-01-11T03:30:44.962Z,29.33
2019-01-11T03:36:22.931Z,29.13
2019-01-11T03:39:03.453Z,27.30
2019-01-11T03:41:46.646Z,27.87
2019-01-11T03:44:27.865Z,26.20
2019-01-11T03:47:06.931Z,27.03
2019-01-11T03:49:55.247Z,27.63
2019-01-11T03:53:04.606Z,31.20
2019-01-11T03:55:52.712Z,25.53
2019-01-11T03:58:40.805Z,24.80
2019-01-11T04:01:28.861Z,26.40
2019-01-11T04:04:16.903Z,26.87
2019-01-11T04:07:24.901Z,27.40
2019-01-11T04:10:13.345Z,25.80
2019-01-11T04:12:54.738Z,25.47
2019-01-11T04:15:35.877Z,25.57
2019-01-11T04:18:17.243Z,28.87
2019-01-11T04:20:58.160Z,28.97
2019-01-11T04:23:39.565Z,26.63
2019-01-11T04:26:20.054Z,26.57
2019-01-11T04:29:01.366Z,27.13
2019-01-11T04:31:42.663Z,25.50
2019-01-11T04:34:23.972Z,29.50
2019-01-11T04:37:05.410Z,30.37
2019-01-11T04:39:46.495Z,30.10
2019-01-11T04:42:27.688Z,27.13
2019-01-11T04:50:56.430Z,27.00
2019-01-11T04:56:31.991Z,26.23
2019-01-11T04:59:14.347Z,26.50
2019-01-11T05:04:49.646Z,24.90
2019-01-11T05:13:00.702Z,24.90
2019-01-11T05:15:48.823Z,26.80
2019-01-11T05:18:36.911Z,29.40
2019-01-11T05:24:21.699Z,24.00
2019-01-11T05:27:09.800Z,29.30
2019-01-11T05:29:57.855Z,29.67
2019-01-11T05:32:45.877Z,30.83
2019-01-11T05:35:27.165Z,29.50
2019-01-11T05:40:58.990Z,31.77
2019-01-11T05:43:40.072Z,29.93
2019-01-11T05:46:21.261Z,32.47
2019-01-11T05:49:02.584Z,32.90
2019-01-11T05:51:43.177Z,36.97
2019-01-11T05:54:24.520Z,42.57
2019-01-11T05:57:05.750Z,38.63
2019-01-11T05:59:46.969Z,38.83
2019-01-11T06:02:28.158Z,39.80
2019-01-11T06:05:09.383Z,44.60
2019-01-11T06:07:49.961Z,42.37
2019-01-11T06:10:31.298Z,36.53
2019-01-11T06:13:12.326Z,38.47
2019-01-11T06:18:36.401Z,39.10
2019-01-11T06:26:55.471Z,43.43
2019-01-11T06:29:36.039Z,44.00
2019-01-11T06:32:17.177Z,46.97
2019-01-11T06:34:58.111Z,53.97
2019-01-11T06:37:38.659Z,52.73
2019-01-11T06:40:20.043Z,50.60
2019-01-11T06:43:03.463Z,48.23
2019-01-11T06:45:48.988Z,56.17
2019-01-11T06:48:37.052Z,42.93
2019-01-11T06:51:25.153Z,54.83
2019-01-11T06:54:13.209Z,47.50
2019-01-11T06:57:01.315Z,52.77
2019-01-11T06:59:49.374Z,50.40
2019-01-11T07:02:37.499Z,45.20
2019-01-11T07:05:18.718Z,51.97
2019-01-11T07:08:00.272Z,55.97
2019-01-11T07:10:29.154Z,52.47
2019-01-11T07:12:57.874Z,48.73
2019-01-11T07:15:27.016Z,52.23
2019-01-11T07:17:56.483Z,51.10
2019-01-11T07:20:26.013Z,64.10
2019-01-11T07:22:55.406Z,55.17
2019-01-11T07:25:24.196Z,48.83
2019-01-11T07:27:52.970Z,53.03
2019-01-11T07:30:22.153Z,51.67
2019-01-11T07:32:50.954Z,52.57
2019-01-11T07:35:19.765Z,47.43
2019-01-11T07:37:48.533Z,50.97
2019-01-11T07:40:17.322Z,48.13
2019-01-11T07:42:46.047Z,53.70
2019-01-11T07:45:14.777Z,55.47
2019-01-11T07:47:43.506Z,46.67
2019-01-11T07:50:12.424Z,49.10
2019-01-11T07:52:41.316Z,47.13
2019-01-11T07:55:11.021Z,46.90
2019-01-11T07:57:39.795Z,61.90
2019-01-11T08:00:10.507Z,48.63
2019-01-11T08:02:39.246Z,42.73
2019-01-11T08:05:08.265Z,43.73
2019-01-11T08:07:37.042Z,47.57
2019-01-11T08:10:08.906Z,73.90
2019-01-11T08:12:37.753Z,51.80
2019-01-11T08:15:09.544Z,42.97
2019-01-11T08:17:38.422Z,41.37
2019-01-11T08:20:08.190Z,47.60
2019-01-11T08:22:36.991Z,44.57
2019-01-11T08:25:06.256Z,43.87
2019-01-11T08:27:35.091Z,42.60
2019-01-11T08:30:07.013Z,39.27
2019-01-11T08:32:35.737Z,44.97
2019-01-11T08:35:06.739Z,49.80
2019-01-11T08:37:35.526Z,42.27
2019-01-11T08:40:07.066Z,37.70
2019-01-11T08:42:35.803Z,36.13
2019-01-11T08:45:07.956Z,35.10
2019-01-11T08:47:36.818Z,39.33
2019-01-11T08:50:08.590Z,35.47
2019-01-11T08:52:37.620Z,35.90
2019-01-11T08:55:06.462Z,36.47
2019-01-11T08:57:35.441Z,36.87
2019-01-11T09:00:07.275Z,35.83
2019-01-11T09:02:36.094Z,33.40
2019-01-11T09:05:06.814Z,35.03
2019-01-11T09:07:35.696Z,45.33
2019-01-11T09:10:10.383Z,37.50
2019-01-11T09:12:39.118Z,33.47
2019-01-11T09:15:08.642Z,43.67
2019-01-11T09:17:37.604Z,37.20
2019-01-11T09:20:06.846Z,39.37
2019-01-11T09:22:35.794Z,45.30
2019-01-11T09:25:05.648Z,43.80
2019-01-11T09:27:34.673Z,42.53
2019-01-11T09:30:06.329Z,46.57
2019-01-11T09:32:35.915Z,42.50
2019-01-11T09:35:04.766Z,49.50
2019-01-11T09:37:33.694Z,54.97
2019-01-11T09:40:04.082Z,49.67
2019-01-11T09:42:32.877Z,68.00
2019-01-11T09:45:01.592Z,53.10
2019-01-11T09:47:30.376Z,57.30
2019-01-11T09:49:59.089Z,61.03
2019-01-11T09:52:27.865Z,52.80
2019-01-11T09:54:56.635Z,55.57
2019-01-11T09:57:25.329Z,57.50
2019-01-11T09:59:54.120Z,53.50
2019-01-11T10:02:22.915Z,53.97
2019-01-11T10:04:51.799Z,46.53
2019-01-11T10:07:20.532Z,61.87
2019-01-11T10:09:49.263Z,56.33
2019-01-11T10:12:17.970Z,60.03
2019-01-11T10:14:46.713Z,56.93
2019-01-11T10:17:15.531Z,51.50
2019-01-11T10:19:44.514Z,56.60
2019-01-11T10:22:13.470Z,54.13
2019-01-11T10:24:42.411Z,67.43
2019-01-11T10:27:11.207Z,64.63
2019-01-11T10:29:40.048Z,62.47
2019-01-11T10:32:09.009Z,57.93
2019-01-11T10:34:37.962Z,50.10
2019-01-11T10:37:06.829Z,68.70
2019-01-11T10:39:38.693Z,70.63
2019-01-11T10:42:10.156Z,65.07
2019-01-11T10:44:38.361Z,69.13
2019-01-11T10:47:07.122Z,60.37
2019-01-11T10:49:35.874Z,66.70
2019-01-11T10:52:04.743Z,63.80
2019-01-11T10:54:33.434Z,65.53
2019-01-11T10:57:02.255Z,61.97
2019-01-11T10:59:30.985Z,71.87
2019-01-11T11:01:59.944Z,86.33
2019-01-11T11:04:32.559Z,58.03
2019-01-11T11:07:01.447Z,68.80
2019-01-11T11:09:30.316Z,61.83
2019-01-11T11:11:59.390Z,60.00
2019-01-11T11:14:28.448Z,71.40
2019-01-11T11:16:57.180Z,65.67
2019-01-11T11:19:26.098Z,67.57
2019-01-11T11:21:54.874Z,70.43
2019-01-11T11:24:23.726Z,63.07
2019-01-11T11:26:52.521Z,64.47
2019-01-11T11:29:21.276Z,64.80
2019-01-11T11:31:50.002Z,109.27
2019-01-11T11:34:24.037Z,74.97
2019-01-11T11:36:52.765Z,63.27
2019-01-11T11:39:21.589Z,77.27
2019-01-11T11:41:50.330Z,76.90
2019-01-11T11:44:19.255Z,78.87
2019-01-11T11:46:48.030Z,75.00
2019-01-11T11:49:16.796Z,77.10
2019-01-11T11:51:45.515Z,88.23
2019-01-11T11:54:14.286Z,89.50
2019-01-11T11:56:43.029Z,72.80
2019-01-11T11:59:11.793Z,72.90
2019-01-11T12:01:40.749Z,74.50
2019-01-11T12:04:09.553Z,70.73
2019-01-11T12:06:38.326Z,77.83
2019-01-11T12:09:08.109Z,70.93
2019-01-11T12:11:36.889Z,87.37
2019-01-11T12:14:05.729Z,78.33
2019-01-11T12:16:34.510Z,66.43
2019-01-11T12:19:03.369Z,81.73
2019-01-11T12:21:32.411Z,66.53
2019-01-11T12:24:01.267Z,72.53
2019-01-11T12:26:29.992Z,73.30
2019-01-11T12:28:59.710Z,79.57
2019-01-11T12:31:28.438Z,68.67
2019-01-11T12:33:57.173Z,80.90
2019-01-11T12:36:25.886Z,67.57
2019-01-11T12:38:54.607Z,71.40
2019-01-11T12:41:23.389Z,63.53
2019-01-11T12:43:52.093Z,62.77
2019-01-11T12:46:20.858Z,56.57
2019-01-11T12:48:49.635Z,58.67
2019-01-11T12:51:18.481Z,62.47
2019-01-11T12:53:47.267Z,58.50
2019-01-11T12:56:15.962Z,63.20
2019-01-11T12:58:44.759Z,62.50
2019-01-11T13:01:13.616Z,58.47
2019-01-11T13:03:42.365Z,53.40
2019-01-11T13:06:11.077Z,58.87
2019-01-11T13:08:39.860Z,55.60
2019-01-11T13:11:08.594Z,57.37
2019-01-11T13:13:37.293Z,59.97
2019-01-11T13:16:06.098Z,53.40
2019-01-11T13:18:34.972Z,55.63
2019-01-11T13:21:03.846Z,69.60
2019-01-11T13:23:32.926Z,55.63
2019-01-11T13:26:01.766Z,57.77
2019-01-11T13:28:30.460Z,50.67
2019-01-11T13:30:59.311Z,46.47
2019-01-11T13:33:28.039Z,49.83
2019-01-11T13:35:56.864Z,50.23
2019-01-11T13:38:25.565Z,51.13
2019-01-11T13:40:54.371Z,54.47
2019-01-11T13:43:23.299Z,49.63
2019-01-11T13:45:52.204Z,41.97
2019-01-11T13:48:20.989Z,45.37
2019-01-11T13:50:49.869Z,43.17
2019-01-11T13:53:18.759Z,40.87
2019-01-11T13:55:47.350Z,35.23
2019-01-11T13:58:16.138Z,31.07
2019-01-11T14:00:44.935Z,26.90
2019-01-11T14:03:13.695Z,22.70
2019-01-11T14:05:42.526Z,23.93
2019-01-11T14:08:11.314Z,23.30
2019-01-11T14:10:40.080Z,18.90
2019-01-11T14:13:09.124Z,23.17
2019-01-11T14:15:38.330Z,21.73
2019-01-11T14:18:07.170Z,21.53
2019-01-11T14:20:35.881Z,19.53
2019-01-11T14:23:04.961Z,21.13
2019-01-11T14:25:33.716Z,19.23
2019-01-11T14:28:03.341Z,21.33
2019-01-11T14:30:32.109Z,20.83
2019-01-11T14:33:00.834Z,18.93
2019-01-11T14:35:29.593Z,20.03
2019-01-11T14:37:58.323Z,16.67
2019-01-11T14:40:27.101Z,19.10
2019-01-11T14:42:55.889Z,22.63
2019-01-11T14:45:25.001Z,18.43
2019-01-11T14:47:53.925Z,16.93
2019-01-11T14:50:22.682Z,17.83
2019-01-11T14:52:51.426Z,20.27
2019-01-11T14:55:20.214Z,22.43
2019-01-11T14:57:49.050Z,19.03
2019-01-11T15:00:20.121Z,19.63
2019-01-11T15:02:49.154Z,22.67
2019-01-11T15:05:19.020Z,20.90
2019-01-11T15:07:47.813Z,19.70
2019-01-11T15:10:16.822Z,16.57
2019-01-11T15:12:47.565Z,21.23
2019-01-11T15:15:16.681Z,17.33
2019-01-11T15:17:45.455Z,18.37
2019-01-11T15:20:16.819Z,19.30
2019-01-11T15:22:46.733Z,20.10
2019-01-11T15:25:15.594Z,21.70
2019-01-11T15:27:44.372Z,16.07
2019-01-11T15:30:15.647Z,19.93
2019-01-11T15:32:44.510Z,20.73
2019-01-11T15:35:13.380Z,20.10
2019-01-11T15:37:42.231Z,15.43
2019-01-11T15:40:17.305Z,17.97
2019-01-11T15:42:46.005Z,13.63
2019-01-11T15:45:14.781Z,15.40
2019-01-11T15:47:43.475Z,18.03
2019-01-11T15:50:18.074Z,13.87
2019-01-11T15:52:46.774Z,13.07
2019-01-11T15:55:15.518Z,11.73
2019-01-11T15:57:44.306Z,12.97
2019-01-11T16:00:18.889Z,11.40
2019-01-11T16:02:47.822Z,10.43
2019-01-11T16:05:16.645Z,10.40
2019-01-11T16:07:45.495Z,9.23
2019-01-11T16:10:17.014Z,9.93
2019-01-11T16:12:46.191Z,11.90
2019-01-11T16:15:33.266Z,8.37
2019-01-11T16:18:05.156Z,8.43
2019-01-11T16:20:33.848Z,8.93
2019-01-11T16:23:02.622Z,11.73
2019-01-11T16:25:31.380Z,11.50
2019-01-11T16:28:00.129Z,13.87
2019-01-11T16:30:28.897Z,14.90
2019-01-11T16:32:57.634Z,14.57
2019-01-11T16:35:26.422Z,13.67
2019-01-11T16:37:55.153Z,15.43
2019-01-11T16:40:23.834Z,15.73
2019-01-11T16:42:52.569Z,11.70
2019-01-11T16:45:21.336Z,14.27
2019-01-11T16:47:50.134Z,15.60
2019-01-11T16:50:19.085Z,12.93
2019-01-11T16:52:47.879Z,15.07
2019-01-11T16:55:16.574Z,12.23
2019-01-11T16:57:45.280Z,13.90
2019-01-11T17:00:18.417Z,18.20
2019-01-11T17:02:47.210Z,19.63
2019-01-11T17:05:16.063Z,13.97
2019-01-11T17:07:44.768Z,22.03
2019-01-11T17:10:13.719Z,19.63
2019-01-11T17:12:42.473Z,16.13
2019-01-11T17:15:14.639Z,18.73
2019-01-11T17:17:43.622Z,18.03
2019-01-11T17:20:14.936Z,19.83
2019-01-11T17:22:44.468Z,26.73
2019-01-11T17:25:14.089Z,15.33
2019-01-11T17:27:43.082Z,19.30
2019-01-11T17:30:14.481Z,15.87
2019-01-11T17:32:43.376Z,15.40
2019-01-11T17:35:12.358Z,14.17
2019-01-11T17:37:41.186Z,15.30
2019-01-11T17:40:11.667Z,11.20
2019-01-11T17:42:40.473Z,13.63
2019-01-11T17:45:12.072Z,11.80
2019-01-11T17:47:41.402Z,13.07
2019-01-11T17:50:14.076Z,18.83
2019-01-11T17:52:43.201Z,12.93
2019-01-11T17:55:12.415Z,14.27
2019-01-11T17:57:41.293Z,14.93
2019-01-11T18:00:12.757Z,18.13
2019-01-11T18:02:41.555Z,15.13
2019-01-11T18:05:12.529Z,16.17
2019-01-11T18:07:41.450Z,18.57
2019-01-11T18:10:11.312Z,16.67
2019-01-11T18:12:40.201Z,19.00
2019-01-11T18:15:14.742Z,21.50
2019-01-11T18:17:43.525Z,20.03
2019-01-11T18:20:18.344Z,17.17
2019-01-11T18:22:47.196Z,16.03
2019-01-11T18:25:15.969Z,14.27
2019-01-11T18:27:44.886Z,19.57
2019-01-11T18:30:15.723Z,20.17
2019-01-11T18:32:45.020Z,16.13
2019-01-11T18:35:14.413Z,15.13
2019-01-11T18:37:43.361Z,19.03
2019-01-11T18:40:23.185Z,18.50
2019-01-11T18:42:52.093Z,17.80
2019-01-11T18:45:20.869Z,23.10
2019-01-11T18:47:49.576Z,17.13
2019-01-11T18:50:20.338Z,19.70
2019-01-11T18:52:49.123Z,17.60
2019-01-11T18:55:17.977Z,23.53
2019-01-11T18:57:47.196Z,20.13
2019-01-11T19:00:18.065Z,23.13
2019-01-11T19:02:47.056Z,23.33
2019-01-11T19:05:16.076Z,28.20
2019-01-11T19:07:46.121Z,24.83
2019-01-11T19:10:17.361Z,26.03
2019-01-11T19:12:46.260Z,20.20
2019-01-11T19:15:20.580Z,25.07
2019-01-11T19:17:49.321Z,20.40
2019-01-11T19:20:23.150Z,24.60
2019-01-11T19:22:52.007Z,23.10
2019-01-11T19:25:20.872Z,22.47
2019-01-11T19:27:49.723Z,22.40
2019-01-11T19:30:23.585Z,21.07
2019-01-11T19:32:52.438Z,20.23
2019-01-11T19:35:21.328Z,19.60
2019-01-11T19:37:50.182Z,22.33
2019-01-11T19:40:19.074Z,22.33
2019-01-11T19:42:48.008Z,21.77
2019-01-11T19:45:18.341Z,19.37
2019-01-11T19:47:47.350Z,22.80
2019-01-11T19:50:21.152Z,20.97
2019-01-11T19:52:50.314Z,21.43
2019-01-11T19:55:19.536Z,21.17
2019-01-11T19:57:48.266Z,15.80
2019-01-11T20:00:22.546Z,22.40
2019-01-11T20:02:51.987Z,18.80
2019-01-11T20:05:21.295Z,23.50
2019-01-11T20:07:50.163Z,20.10
2019-01-11T20:10:22.216Z,19.13
2019-01-11T20:12:51.162Z,18.97
2019-01-11T20:15:20.028Z,22.53
2019-01-11T20:17:48.933Z,22.10
2019-01-11T20:20:17.811Z,15.20
2019-01-11T20:22:46.672Z,22.13
2019-01-11T20:25:21.049Z,20.30
2019-01-11T20:27:50.109Z,15.60
2019-01-11T20:30:20.949Z,16.97
2019-01-11T20:32:49.814Z,22.27
2019-01-11T20:35:18.649Z,19.53
2019-01-11T20:37:47.749Z,19.43
2019-01-11T20:40:16.993Z,19.60
2019-01-11T20:42:45.790Z,15.27
2019-01-11T20:45:16.625Z,19.47
2019-01-11T20:47:45.421Z,19.43
2019-01-11T20:50:17.271Z,20.53
2019-01-11T20:52:46.317Z,21.93
2019-01-11T20:55:15.249Z,16.57
2019-01-11T20:57:44.446Z,23.10
2019-01-11T21:00:19.310Z,20.00
2019-01-11T21:02:48.219Z,22.07
2019-01-11T21:05:17.558Z,17.03
2019-01-11T21:07:46.312Z,17.83
2019-01-11T21:10:15.310Z,22.17
2019-01-11T21:12:44.088Z,19.63
2019-01-11T21:15:18.261Z,22.90
2019-01-11T21:17:47.154Z,24.73
2019-01-11T21:20:17.805Z,18.70
2019-01-11T21:22:46.959Z,27.50
2019-01-11T21:25:17.636Z,23.20
2019-01-11T21:27:46.512Z,27.90
2019-01-11T21:30:32.244Z,31.20
2019-01-11T21:33:01.171Z,25.23
2019-01-11T21:35:30.003Z,26.17
2019-01-11T21:37:58.690Z,21.87
2019-01-11T21:40:27.437Z,26.67
2019-01-11T21:42:56.266Z,25.77
2019-01-11T21:45:25.219Z,26.13
2019-01-11T21:47:53.961Z,23.43
2019-01-11T21:50:23.587Z,27.37
2019-01-11T21:52:52.415Z,28.17
2019-01-11T21:55:21.310Z,23.97
2019-01-11T21:57:50.149Z,32.17
2019-01-11T22:00:24.876Z,25.90
2019-01-11T22:02:53.563Z,25.77
2019-01-11T22:05:22.437Z,30.33
2019-01-11T22:07:51.130Z,33.03
2019-01-11T22:10:20.043Z,35.63
2019-01-11T22:12:49.165Z,33.77
2019-01-11T22:15:18.777Z,25.27
2019-01-11T22:17:47.470Z,27.73
2019-01-11T22:20:17.260Z,28.07
2019-01-11T22:22:46.189Z,33.43
2019-01-11T22:25:16.273Z,34.13
2019-01-11T22:27:44.971Z,28.00
2019-01-11T22:30:15.925Z,30.70
2019-01-11T22:32:44.704Z,27.93
2019-01-11T22:35:13.489Z,30.60
2019-01-11T22:37:42.282Z,28.53
2019-01-11T22:40:22.086Z,31.03
2019-01-11T22:42:53.124Z,23.87
2019-01-11T22:45:21.931Z,25.57
2019-01-11T22:47:50.696Z,22.37
2019-01-11T22:50:19.487Z,24.57
2019-01-11T22:52:48.319Z,23.07
2019-01-11T22:55:18.213Z,17.97
2019-01-11T22:57:47.037Z,17.97
2019-01-11T23:00:21.847Z,17.23
2019-01-11T23:02:52.010Z,27.23
2019-01-11T23:05:20.806Z,18.50
2019-01-11T23:07:49.581Z,21.73
2019-01-11T23:10:24.239Z,18.43
2019-01-11T23:12:55.955Z,27.33
2019-01-11T23:15:24.790Z,23.63
2019-01-11T23:17:53.676Z,23.07
2019-01-11T23:20:22.371Z,22.27
2019-01-11T23:22:51.908Z,24.40
2019-01-11T23:25:20.742Z,26.83
2019-01-11T23:27:49.488Z,21.47
2019-01-11T23:30:18.331Z,18.40
2019-01-11T23:32:47.041Z,22.67
2019-01-11T23:35:15.748Z,23.57
2019-01-11T23:37:44.474Z,18.27
2019-01-11T23:40:14.205Z,19.17
2019-01-11T23:42:43.043Z,20.87
2019-01-11T23:45:12.285Z,17.33
2019-01-11T23:47:40.976Z,20.93
2019-01-11T23:50:12.954Z,17.57
2019-01-11T23:52:41.893Z,19.33
2019-01-11T23:55:11.254Z,14.67
2019-01-11T23:57:39.962Z,19.67
